Chateaugay, New York
Current Conditions -  °F | °C
As of 3:53 PM on Tuesday 27 Jan 2015 (Local Time) from KPBG Reporting Station
Light Snow Light Snow  
Wind Chill: -11°   Ceiling: 1700
Heat Index:   Visibility: 0.75mi
Dew Point:   Wind: 23mph
Humidity: 70%   Direction: 350°N
Pressure: 29.97"   Gusts: 33mph
Location:  44.93°N, 74.08°W
Report Text: KPBG 272053Z AUTO 35020G29KT 3/4SM -SN VV017 M13/M17 A2997 RMK AO2 PK WND 35029/2022 UPB02E09SNE02B09 SLP156 P0000 60000 T11281172 53000
Loading
Personal Weather Stations






























Interactive Weather Map New forecast layout! Learn more

10-Day Weather Forecast

Advertisements
Track Severe Weather on mobile